sensor_id;sensor_type;location;lat;lon;timestamp;pressure;altitude;pressure_sealevel;temperature;humidity
24558;BME280;12726;49.148;8.582;2023-05-02T00:01:55;100520.63;;;11.17;100.00
24558;BME280;12726;49.148;8.582;2023-05-02T00:04:40;100511.78;;;11.03;100.00
24558;BME280;12726;49.148;8.582;2023-05-02T00:07:26;100511.19;;;11.01;100.00
24558;BME280;12726;49.148;8.582;2023-05-02T00:10:11;100508.06;;;11.04;100.00
24558;BME280;12726;49.148;8.582;2023-05-02T00:12:56;100516.16;;;10.97;100.00
24558;BME280;12726;49.148;8.582;2023-05-02T00:15:43;100515.94;;;10.99;100.00
24558;BME280;12726;49.148;8.582;2023-05-02T00:18:29;100511.38;;;11.06;100.00
24558;BME280;12726;49.148;8.582;2023-05-02T00:21:14;100514.06;;;11.06;100.00
24558;BME280;12726;49.148;8.582;2023-05-02T00:24:00;100520.91;;;11.02;100.00
24558;BME280;12726;49.148;8.582;2023-05-02T00:26:45;100513.84;;;11.08;100.00
24558;BME280;12726;49.148;8.582;2023-05-02T00:29:30;100511.78;;;11.03;100.00
24558;BME280;12726;49.148;8.582;2023-05-02T00:32:17;100510.56;;;10.99;100.00
24558;BME280;12726;49.148;8.582;2023-05-02T00:35:03;100508.88;;;11.05;100.00
24558;BME280;12726;49.148;8.582;2023-05-02T00:37:49;100509.91;;;11.04;100.00
24558;BME280;12726;49.148;8.582;2023-05-02T00:40:42;100506.22;;;10.98;100.00
24558;BME280;12726;49.148;8.582;2023-05-02T00:43:29;100510.94;;;11.03;100.00
24558;BME280;12726;49.148;8.582;2023-05-02T00:46:14;100511.75;;;11.10;100.00
24558;BME280;12726;49.148;8.582;2023-05-02T00:49:01;100508.91;;;10.98;100.00
24558;BME280;12726;49.148;8.582;2023-05-02T00:51:46;100509.31;;;10.95;100.00
24558;BME280;12726;49.148;8.582;2023-05-02T00:54:32;100507.91;;;10.86;100.00
24558;BME280;12726;49.148;8.582;2023-05-02T00:57:17;100511.66;;;10.78;100.00
24558;BME280;12726;49.148;8.582;2023-05-02T01:00:03;100523.06;;;10.67;100.00
24558;BME280;12726;49.148;8.582;2023-05-02T01:02:52;100522.06;;;10.55;100.00
24558;BME280;12726;49.148;8.582;2023-05-02T01:05:45;100532.66;;;10.43;100.00
24558;BME280;12726;49.148;8.582;2023-05-02T01:08:37;100527.03;;;10.38;100.00
24558;BME280;12726;49.148;8.582;2023-05-02T01:11:29;100530.75;;;10.31;100.00
24558;BME280;12726;49.148;8.582;2023-05-02T01:14:20;100526.03;;;10.19;100.00
24558;BME280;12726;49.148;8.582;2023-05-02T01:17:10;100531.78;;;10.10;100.00
24558;BME280;12726;49.148;8.582;2023-05-02T01:19:58;100530.13;;;10.15;100.00
24558;BME280;12726;49.148;8.582;2023-05-02T01:22:48;100534.06;;;10.13;100.00
24558;BME280;12726;49.148;8.582;2023-05-02T01:25:40;100537.16;;;10.10;100.00
24558;BME280;12726;49.148;8.582;2023-05-02T01:28:47;100534.06;;;10.00;100.00
24558;BME280;12726;49.148;8.582;2023-05-02T01:31:34;100535.72;;;9.94;100.00
24558;BME280;12726;49.148;8.582;2023-05-02T01:34:21;100542.31;;;9.92;100.00
24558;BME280;12726;49.148;8.582;2023-05-02T01:37:10;100535.66;;;9.88;100.00
24558;BME280;12726;49.148;8.582;2023-05-02T01:39:57;100538.78;;;9.78;100.00
24558;BME280;12726;49.148;8.582;2023-05-02T01:42:46;100543.72;;;9.68;100.00
24558;BME280;12726;49.148;8.582;2023-05-02T01:45:34;100542.47;;;9.57;100.00
24558;BME280;12726;49.148;8.582;2023-05-02T01:48:22;100551.31;;;9.51;100.00
24558;BME280;12726;49.148;8.582;2023-05-02T01:51:10;100548.22;;;9.54;100.00
24558;BME280;12726;49.148;8.582;2023-05-02T01:53:57;100555.25;;;9.49;100.00
24558;BME280;12726;49.148;8.582;2023-05-02T01:56:44;100561.63;;;9.41;100.00
24558;BME280;12726;49.148;8.582;2023-05-02T01:59:32;100567.38;;;9.38;100.00
24558;BME280;12726;49.148;8.582;2023-05-02T02:02:20;100571.31;;;9.35;100.00
24558;BME280;12726;49.148;8.582;2023-05-02T02:05:07;100582.44;;;9.32;100.00
24558;BME280;12726;49.148;8.582;2023-05-02T02:07:53;100579.09;;;9.24;100.00
24558;BME280;12726;49.148;8.582;2023-05-02T02:10:40;100573.13;;;9.22;100.00
24558;BME280;12726;49.148;8.582;2023-05-02T02:13:30;100586.91;;;9.12;100.00
24558;BME280;12726;49.148;8.582;2023-05-02T02:16:23;100595.97;;;9.11;100.00
24558;BME280;12726;49.148;8.582;2023-05-02T02:19:12;100600.31;;;9.12;100.00
24558;BME280;12726;49.148;8.582;2023-05-02T02:21:59;100604.88;;;9.12;100.00
24558;BME280;12726;49.148;8.582;2023-05-02T02:24:45;100604.22;;;9.10;100.00
24558;BME280;12726;49.148;8.582;2023-05-02T02:27:32;100618.44;;;9.03;100.00
24558;BME280;12726;49.148;8.582;2023-05-02T02:30:17;100615.16;;;9.01;100.00
24558;BME280;12726;49.148;8.582;2023-05-02T02:33:02;100612.06;;;9.04;100.00
24558;BME280;12726;49.148;8.582;2023-05-02T02:35:57;100619.97;;;9.13;100.00
24558;BME280;12726;49.148;8.582;2023-05-02T02:38:53;100620.59;;;9.15;100.00
24558;BME280;12726;49.148;8.582;2023-05-02T02:41:48;100631.34;;;9.15;100.00
24558;BME280;12726;49.148;8.582;2023-05-02T02:44:40;100629.97;;;8.97;100.00
24558;BME280;12726;49.148;8.582;2023-05-02T02:47:31;100629.31;;;8.89;100.00
24558;BME280;12726;49.148;8.582;2023-05-02T02:50:25;100630.41;;;8.94;100.00
24558;BME280;12726;49.148;8.582;2023-05-02T02:53:17;100628.81;;;9.07;100.00
24558;BME280;12726;49.148;8.582;2023-05-02T02:56:05;100627.34;;;9.04;100.00
24558;BME280;12726;49.148;8.582;2023-05-02T02:58:58;100633.91;;;8.95;100.00
24558;BME280;12726;49.148;8.582;2023-05-02T03:01:47;100634.94;;;8.94;100.00
24558;BME280;12726;49.148;8.582;2023-05-02T03:04:40;100636.97;;;8.92;100.00
24558;BME280;12726;49.148;8.582;2023-05-02T03:07:26;100642.53;;;8.90;100.00
24558;BME280;12726;49.148;8.582;2023-05-02T03:10:14;100649.34;;;8.86;100.00
24558;BME280;12726;49.148;8.582;2023-05-02T03:12:59;100643.13;;;8.86;100.00
24558;BME280;12726;49.148;8.582;2023-05-02T03:16:22;100644.34;;;8.83;100.00
24558;BME280;12726;49.148;8.582;2023-05-02T03:19:13;100651.31;;;8.78;100.00
24558;BME280;12726;49.148;8.582;2023-05-02T03:21:59;100656.88;;;8.76;100.00
24558;BME280;12726;49.148;8.582;2023-05-02T03:24:44;100660.41;;;8.77;100.00
24558;BME280;12726;49.148;8.582;2023-05-02T03:27:31;100659.56;;;8.76;100.00
24558;BME280;12726;49.148;8.582;2023-05-02T03:30:16;100659.16;;;8.73;100.00
24558;BME280;12726;49.148;8.582;2023-05-02T03:33:02;100659.16;;;8.73;100.00
24558;BME280;12726;49.148;8.582;2023-05-02T03:35:51;100665.34;;;8.73;100.00
24558;BME280;12726;49.148;8.582;2023-05-02T03:38:36;100661.56;;;8.68;100.00
24558;BME280;12726;49.148;8.582;2023-05-02T03:41:22;100665.91;;;8.69;100.00
24558;BME280;12726;49.148;8.582;2023-05-02T03:44:09;100666.09;;;8.67;100.00
24558;BME280;12726;49.148;8.582;2023-05-02T03:46:54;100666.88;;;8.61;100.00
24558;BME280;12726;49.148;8.582;2023-05-02T03:49:40;100663.63;;;8.66;100.00
24558;BME280;12726;49.148;8.582;2023-05-02T03:52:25;100668.41;;;8.70;100.00
24558;BME280;12726;49.148;8.582;2023-05-02T03:55:11;100656.72;;;8.56;100.00
24558;BME280;12726;49.148;8.582;2023-05-02T03:57:56;100674.69;;;8.56;100.00
24558;BME280;12726;49.148;8.582;2023-05-02T04:00:43;100674.16;;;8.46;100.00
24558;BME280;12726;49.148;8.582;2023-05-02T04:03:28;100684.00;;;8.39;100.00
24558;BME280;12726;49.148;8.582;2023-05-02T04:06:14;100689.81;;;8.42;100.00
24558;BME280;12726;49.148;8.582;2023-05-02T04:08:59;100693.53;;;8.41;100.00
24558;BME280;12726;49.148;8.582;2023-05-02T04:11:44;100694.09;;;8.37;100.00
24558;BME280;12726;49.148;8.582;2023-05-02T04:14:30;100696.97;;;8.35;100.00
24558;BME280;12726;49.148;8.582;2023-05-02T04:17:17;100699.97;;;8.47;100.00
24558;BME280;12726;49.148;8.582;2023-05-02T04:20:02;100699.78;;;8.48;100.00
24558;BME280;12726;49.148;8.582;2023-05-02T04:22:48;100721.25;;;8.48;100.00
24558;BME280;12726;49.148;8.582;2023-05-02T04:25:33;100713.59;;;8.67;100.00
24558;BME280;12726;49.148;8.582;2023-05-02T04:28:19;100716.13;;;8.75;100.00
24558;BME280;12726;49.148;8.582;2023-05-02T04:31:04;100729.19;;;8.78;100.00
24558;BME280;12726;49.148;8.582;2023-05-02T04:33:51;100724.25;;;8.81;100.00
24558;BME280;12726;49.148;8.582;2023-05-02T04:36:37;100726.13;;;8.81;100.00
24558;BME280;12726;49.148;8.582;2023-05-02T04:39:22;100734.34;;;8.79;100.00
24558;BME280;12726;49.148;8.582;2023-05-02T04:42:08;100728.59;;;8.82;100.00
24558;BME280;12726;49.148;8.582;2023-05-02T04:44:53;100736.84;;;8.81;100.00
24558;BME280;12726;49.148;8.582;2023-05-02T04:47:38;100746.81;;;8.87;100.00
24558;BME280;12726;49.148;8.582;2023-05-02T04:50:26;100750.91;;;8.83;100.00
24558;BME280;12726;49.148;8.582;2023-05-02T04:53:12;100750.19;;;8.95;100.00
24558;BME280;12726;49.148;8.582;2023-05-02T04:55:57;100747.31;;;8.97;100.00
24558;BME280;12726;49.148;8.582;2023-05-02T04:58:42;100757.72;;;9.07;100.00
24558;BME280;12726;49.148;8.582;2023-05-02T05:01:28;100774.81;;;8.99;100.00
24558;BME280;12726;49.148;8.582;2023-05-02T05:04:13;100773.91;;;8.92;100.00
24558;BME280;12726;49.148;8.582;2023-05-02T05:07:00;100775.63;;;8.99;100.00
24558;BME280;12726;49.148;8.582;2023-05-02T05:09:45;100774.63;;;9.00;100.00
24558;BME280;12726;49.148;8.582;2023-05-02T05:12:31;100779.44;;;9.12;100.00
24558;BME280;12726;49.148;8.582;2023-05-02T05:15:16;100786.78;;;9.24;100.00
24558;BME280;12726;49.148;8.582;2023-05-02T05:18:03;100794.09;;;9.30;100.00
24558;BME280;12726;49.148;8.582;2023-05-02T05:20:48;100801.97;;;9.38;100.00
24558;BME280;12726;49.148;8.582;2023-05-02T05:23:36;100800.00;;;9.47;100.00
24558;BME280;12726;49.148;8.582;2023-05-02T05:26:21;100809.38;;;9.58;100.00
24558;BME280;12726;49.148;8.582;2023-05-02T05:29:08;100818.75;;;9.68;100.00
24558;BME280;12726;49.148;8.582;2023-05-02T05:31:53;100814.06;;;9.77;100.00
24558;BME280;12726;49.148;8.582;2023-05-02T05:34:38;100818.63;;;9.83;100.00
24558;BME280;12726;49.148;8.582;2023-05-02T05:37:24;100827.16;;;9.87;100.00
24558;BME280;12726;49.148;8.582;2023-05-02T05:40:11;100827.81;;;9.95;100.00
24558;BME280;12726;49.148;8.582;2023-05-02T05:42:56;100828.47;;;10.04;100.00
24558;BME280;12726;49.148;8.582;2023-05-02T05:45:42;100828.31;;;10.12;100.00
24558;BME280;12726;49.148;8.582;2023-05-02T05:48:28;100834.09;;;10.09;100.00
24558;BME280;12726;49.148;8.582;2023-05-02T05:51:13;100842.59;;;10.12;100.00
24558;BME280;12726;49.148;8.582;2023-05-02T05:53:58;100839.28;;;10.10;100.00
24558;BME280;12726;49.148;8.582;2023-05-02T05:56:45;100840.34;;;10.16;100.00
24558;BME280;12726;49.148;8.582;2023-05-02T05:59:33;100844.72;;;10.17;100.00
24558;BME280;12726;49.148;8.582;2023-05-02T06:02:19;100843.91;;;10.23;100.00
24558;BME280;12726;49.148;8.582;2023-05-02T06:05:05;100849.72;;;10.20;100.00
24558;BME280;12726;49.148;8.582;2023-05-02T06:07:50;100854.69;;;10.23;100.00
24558;BME280;12726;49.148;8.582;2023-05-02T06:10:36;100853.75;;;10.37;100.00
24558;BME280;12726;49.148;8.582;2023-05-02T06:13:22;100855.81;;;10.35;100.00
24558;BME280;12726;49.148;8.582;2023-05-02T06:16:08;100866.97;;;10.39;100.00
24558;BME280;12726;49.148;8.582;2023-05-02T06:18:53;100871.16;;;10.41;100.00
24558;BME280;12726;49.148;8.582;2023-05-02T06:21:38;100873.25;;;10.52;100.00
24558;BME280;12726;49.148;8.582;2023-05-02T06:24:24;100882.41;;;10.58;100.00
24558;BME280;12726;49.148;8.582;2023-05-02T06:27:09;100887.22;;;10.76;100.00
24558;BME280;12726;49.148;8.582;2023-05-02T06:29:56;100881.31;;;11.00;100.00
24558;BME280;12726;49.148;8.582;2023-05-02T06:32:41;100899.56;;;11.11;100.00
24558;BME280;12726;49.148;8.582;2023-05-02T06:35:26;100906.25;;;11.28;100.00
24558;BME280;12726;49.148;8.582;2023-05-02T06:38:12;100897.97;;;11.43;100.00
24558;BME280;12726;49.148;8.582;2023-05-02T06:40:57;100901.31;;;11.71;100.00
24558;BME280;12726;49.148;8.582;2023-05-02T06:43:42;100908.38;;;11.99;100.00
24558;BME280;12726;49.148;8.582;2023-05-02T06:46:29;100904.38;;;12.08;99.72
24558;BME280;12726;49.148;8.582;2023-05-02T06:49:14;100909.81;;;12.14;99.16
24558;BME280;12726;49.148;8.582;2023-05-02T06:52:00;100905.19;;;12.15;97.09
24558;BME280;12726;49.148;8.582;2023-05-02T06:54:45;100911.84;;;12.26;95.89
24558;BME280;12726;49.148;8.582;2023-05-02T06:57:30;100915.97;;;12.35;94.65
24558;BME280;12726;49.148;8.582;2023-05-02T07:00:17;100916.78;;;12.42;93.59
24558;BME280;12726;49.148;8.582;2023-05-02T07:03:04;100917.38;;;12.44;93.04
24558;BME280;12726;49.148;8.582;2023-05-02T07:05:49;100916.94;;;12.60;92.82
24558;BME280;12726;49.148;8.582;2023-05-02T07:08:35;100932.03;;;12.81;91.94
24558;BME280;12726;49.148;8.582;2023-05-02T07:11:20;100922.47;;;13.23;90.50
24558;BME280;12726;49.148;8.582;2023-05-02T07:14:06;100918.63;;;13.68;89.16
24558;BME280;12726;49.148;8.582;2023-05-02T07:16:52;100912.00;;;13.89;87.73
24558;BME280;12726;49.148;8.582;2023-05-02T07:19:38;100926.59;;;14.31;86.62
24558;BME280;12726;49.148;8.582;2023-05-02T07:22:24;100922.31;;;14.97;82.91
24558;BME280;12726;49.148;8.582;2023-05-02T07:25:09;100925.94;;;15.50;78.57
24558;BME280;12726;49.148;8.582;2023-05-02T07:27:55;100925.69;;;16.17;75.64
24558;BME280;12726;49.148;8.582;2023-05-02T07:30:40;100925.16;;;16.78;72.75
24558;BME280;12726;49.148;8.582;2023-05-02T07:33:25;100925.41;;;17.16;69.14
24558;BME280;12726;49.148;8.582;2023-05-02T07:36:12;100925.28;;;17.40;67.93
24558;BME280;12726;49.148;8.582;2023-05-02T07:38:57;100914.94;;;16.97;68.11
24558;BME280;12726;49.148;8.582;2023-05-02T07:41:43;100920.72;;;16.60;68.92
24558;BME280;12726;49.148;8.582;2023-05-02T07:44:28;100923.56;;;16.07;71.21
24558;BME280;12726;49.148;8.582;2023-05-02T07:47:13;100921.19;;;15.99;72.18
24558;BME280;12726;49.148;8.582;2023-05-02T07:49:59;100920.38;;;15.87;72.66
24558;BME280;12726;49.148;8.582;2023-05-02T07:52:46;100920.38;;;16.97;69.91
24558;BME280;12726;49.148;8.582;2023-05-02T07:55:31;100928.06;;;17.73;65.00
24558;BME280;12726;49.148;8.582;2023-05-02T07:58:16;100931.53;;;18.02;64.92
24558;BME280;12726;49.148;8.582;2023-05-02T08:01:02;100931.69;;;18.67;61.41
24558;BME280;12726;49.148;8.582;2023-05-02T08:03:48;100926.69;;;18.81;60.21
24558;BME280;12726;49.148;8.582;2023-05-02T08:06:33;100935.50;;;18.88;60.47
24558;BME280;12726;49.148;8.582;2023-05-02T08:09:20;100932.44;;;18.63;61.93
24558;BME280;12726;49.148;8.582;2023-05-02T08:12:05;100929.66;;;18.80;60.38
24558;BME280;12726;49.148;8.582;2023-05-02T08:14:50;100931.03;;;18.05;61.80
24558;BME280;12726;49.148;8.582;2023-05-02T08:17:36;100928.06;;;18.23;62.62
24558;BME280;12726;49.148;8.582;2023-05-02T08:20:21;100939.53;;;17.92;62.67
24558;BME280;12726;49.148;8.582;2023-05-02T08:23:06;100945.53;;;17.60;62.67
24558;BME280;12726;49.148;8.582;2023-05-02T08:25:53;100939.69;;;17.23;63.81
24558;BME280;12726;49.148;8.582;2023-05-02T08:28:38;100940.22;;;17.09;65.64
24558;BME280;12726;49.148;8.582;2023-05-02T08:31:23;100940.50;;;17.24;66.13
24558;BME280;12726;49.148;8.582;2023-05-02T08:34:09;100937.53;;;18.37;61.87
24558;BME280;12726;49.148;8.582;2023-05-02T08:36:54;100937.66;;;19.35;58.64
24558;BME280;12726;49.148;8.582;2023-05-02T08:39:39;100943.09;;;19.08;57.08
24558;BME280;12726;49.148;8.582;2023-05-02T08:42:27;100941.41;;;19.50;57.03
24558;BME280;12726;49.148;8.582;2023-05-02T08:45:13;100949.34;;;20.16;53.58
24558;BME280;12726;49.148;8.582;2023-05-02T08:47:58;100938.28;;;20.01;52.90
24558;BME280;12726;49.148;8.582;2023-05-02T08:50:44;100938.19;;;19.90;52.69
24558;BME280;12726;49.148;8.582;2023-05-02T08:53:33;100944.56;;;19.15;55.54
24558;BME280;12726;49.148;8.582;2023-05-02T08:56:19;100957.56;;;18.65;57.55
24558;BME280;12726;49.148;8.582;2023-05-02T08:59:06;100948.06;;;17.95;58.03
24558;BME280;12726;49.148;8.582;2023-05-02T09:01:56;100964.72;;;18.32;57.18
24558;BME280;12726;49.148;8.582;2023-05-02T09:04:44;100965.50;;;18.66;58.74
24558;BME280;12726;49.148;8.582;2023-05-02T09:07:43;100955.47;;;19.96;55.25
24558;BME280;12726;49.148;8.582;2023-05-02T09:10:29;100962.13;;;20.94;50.76
24558;BME280;12726;49.148;8.582;2023-05-02T09:13:30;100962.78;;;21.22;51.99
24558;BME280;12726;49.148;8.582;2023-05-02T09:16:19;100966.16;;;21.69;52.47
24558;BME280;12726;49.148;8.582;2023-05-02T09:19:05;100964.81;;;20.89;49.57
24558;BME280;12726;49.148;8.582;2023-05-02T09:21:50;100965.69;;;21.00;50.41
24558;BME280;12726;49.148;8.582;2023-05-02T09:24:37;100956.88;;;21.85;47.80
24558;BME280;12726;49.148;8.582;2023-05-02T09:27:22;100963.38;;;22.65;48.82
24558;BME280;12726;49.148;8.582;2023-05-02T09:30:21;100965.38;;;21.79;46.25
24558;BME280;12726;49.148;8.582;2023-05-02T09:33:08;100966.09;;;21.24;47.48
24558;BME280;12726;49.148;8.582;2023-05-02T09:35:53;100964.53;;;20.86;47.98
24558;BME280;12726;49.148;8.582;2023-05-02T09:38:39;100963.63;;;21.27;47.81
24558;BME280;12726;49.148;8.582;2023-05-02T09:41:24;100963.88;;;21.21;48.91
24558;BME280;12726;49.148;8.582;2023-05-02T09:44:10;100966.75;;;21.97;45.58
24558;BME280;12726;49.148;8.582;2023-05-02T09:46:56;100969.22;;;22.03;46.96
24558;BME280;12726;49.148;8.582;2023-05-02T09:49:44;100968.53;;;21.25;47.21
24558;BME280;12726;49.148;8.582;2023-05-02T09:52:29;100961.41;;;20.25;49.27
24558;BME280;12726;49.148;8.582;2023-05-02T09:55:20;100964.97;;;19.62;50.01
24558;BME280;12726;49.148;8.582;2023-05-02T09:58:06;100970.78;;;19.65;50.01
24558;BME280;12726;49.148;8.582;2023-05-02T10:00:51;100967.84;;;20.41;49.62
24558;BME280;12726;49.148;8.582;2023-05-02T10:03:38;100969.41;;;21.46;47.89
24558;BME280;12726;49.148;8.582;2023-05-02T10:06:26;100983.72;;;21.78;46.11
24558;BME280;12726;49.148;8.582;2023-05-02T10:09:13;100987.31;;;20.44;48.23
24558;BME280;12726;49.148;8.582;2023-05-02T10:12:01;100992.25;;;19.35;51.01
24558;BME280;12726;49.148;8.582;2023-05-02T10:14:49;101000.31;;;18.59;53.61
24558;BME280;12726;49.148;8.582;2023-05-02T10:17:43;100992.41;;;18.24;55.73
24558;BME280;12726;49.148;8.582;2023-05-02T10:20:34;100998.72;;;17.80;56.27
24558;BME280;12726;49.148;8.582;2023-05-02T10:23:24;101000.47;;;17.86;56.94
24558;BME280;12726;49.148;8.582;2023-05-02T10:26:13;101002.41;;;18.19;53.84
24558;BME280;12726;49.148;8.582;2023-05-02T10:28:59;100999.72;;;18.07;55.74
24558;BME280;12726;49.148;8.582;2023-05-02T10:31:45;100999.66;;;18.35;54.17
24558;BME280;12726;49.148;8.582;2023-05-02T10:34:31;100996.44;;;18.77;51.59
24558;BME280;12726;49.148;8.582;2023-05-02T10:37:17;100987.44;;;19.69;49.88
24558;BME280;12726;49.148;8.582;2023-05-02T10:40:09;100978.25;;;20.91;46.95
24558;BME280;12726;49.148;8.582;2023-05-02T10:42:54;100977.72;;;20.89;45.91
24558;BME280;12726;49.148;8.582;2023-05-02T10:45:40;100976.38;;;21.01;46.93
24558;BME280;12726;49.148;8.582;2023-05-02T10:48:26;100989.59;;;20.67;44.76
24558;BME280;12726;49.148;8.582;2023-05-02T10:51:26;100979.66;;;21.03;45.60
24558;BME280;12726;49.148;8.582;2023-05-02T10:54:19;100975.19;;;21.55;47.13
24558;BME280;12726;49.148;8.582;2023-05-02T10:57:06;100980.63;;;21.39;46.29
24558;BME280;12726;49.148;8.582;2023-05-02T10:59:52;100967.97;;;20.61;47.22
24558;BME280;12726;49.148;8.582;2023-05-02T11:02:47;100973.31;;;20.41;48.28
24558;BME280;12726;49.148;8.582;2023-05-02T11:06:03;100984.47;;;19.70;49.56
24558;BME280;12726;49.148;8.582;2023-05-02T11:08:49;100986.13;;;19.23;51.28
24558;BME280;12726;49.148;8.582;2023-05-02T11:11:39;100993.84;;;18.65;53.05
24558;BME280;12726;49.148;8.582;2023-05-02T11:14:46;100992.03;;;18.37;53.27
24558;BME280;12726;49.148;8.582;2023-05-02T11:17:57;100992.56;;;18.18;54.51
24558;BME280;12726;49.148;8.582;2023-05-02T11:20:44;100995.19;;;17.96;55.36
24558;BME280;12726;49.148;8.582;2023-05-02T11:23:29;100991.91;;;18.83;52.91
24558;BME280;12726;49.148;8.582;2023-05-02T11:26:21;100989.28;;;19.36;51.76
24558;BME280;12726;49.148;8.582;2023-05-02T11:29:06;100984.03;;;19.30;50.98
24558;BME280;12726;49.148;8.582;2023-05-02T11:31:53;100986.91;;;19.99;49.78
24558;BME280;12726;49.148;8.582;2023-05-02T11:34:43;100989.00;;;20.55;47.91
24558;BME280;12726;49.148;8.582;2023-05-02T11:37:28;100977.47;;;21.00;47.63
24558;BME280;12726;49.148;8.582;2023-05-02T11:40:14;100974.84;;;21.26;45.41
24558;BME280;12726;49.148;8.582;2023-05-02T11:43:00;100963.63;;;21.17;44.93
24558;BME280;12726;49.148;8.582;2023-05-02T11:45:45;100968.19;;;21.11;46.60
24558;BME280;12726;49.148;8.582;2023-05-02T11:48:31;100972.28;;;21.04;45.76
24558;BME280;12726;49.148;8.582;2023-05-02T11:51:21;100975.75;;;20.89;47.26
24558;BME280;12726;49.148;8.582;2023-05-02T11:54:06;100967.72;;;21.20;45.84
24558;BME280;12726;49.148;8.582;2023-05-02T11:56:53;100967.16;;;21.18;44.85
24558;BME280;12726;49.148;8.582;2023-05-02T11:59:51;100964.53;;;20.81;46.42
24558;BME280;12726;49.148;8.582;2023-05-02T12:02:38;100960.28;;;20.53;47.63
24558;BME280;12726;49.148;8.582;2023-05-02T12:05:28;100953.84;;;20.84;46.71
24558;BME280;12726;49.148;8.582;2023-05-02T12:08:20;100958.41;;;20.58;45.15
24558;BME280;12726;49.148;8.582;2023-05-02T12:11:07;100964.38;;;20.55;46.26
24558;BME280;12726;49.148;8.582;2023-05-02T12:13:53;100967.69;;;20.57;47.85
24558;BME280;12726;49.148;8.582;2023-05-02T12:16:40;100970.94;;;21.11;45.54
24558;BME280;12726;49.148;8.582;2023-05-02T12:19:25;100968.00;;;21.28;44.29
24558;BME280;12726;49.148;8.582;2023-05-02T12:22:13;100971.59;;;21.34;44.91
24558;BME280;12726;49.148;8.582;2023-05-02T12:24:59;100977.63;;;21.46;44.76
24558;BME280;12726;49.148;8.582;2023-05-02T12:27:57;100978.19;;;21.38;42.48
24558;BME280;12726;49.148;8.582;2023-05-02T12:30:45;100976.00;;;21.50;43.56
24558;BME280;12726;49.148;8.582;2023-05-02T12:33:40;100986.75;;;21.67;44.79
24558;BME280;12726;49.148;8.582;2023-05-02T12:36:27;100979.34;;;21.77;43.65
24558;BME280;12726;49.148;8.582;2023-05-02T12:39:13;100980.19;;;22.13;43.94
24558;BME280;12726;49.148;8.582;2023-05-02T12:41:59;100976.50;;;21.27;43.87
24558;BME280;12726;49.148;8.582;2023-05-02T12:44:45;100982.06;;;20.90;44.14
24558;BME280;12726;49.148;8.582;2023-05-02T12:47:43;100985.28;;;21.39;45.33
24558;BME280;12726;49.148;8.582;2023-05-02T12:50:36;100978.31;;;21.11;44.04
24558;BME280;12726;49.148;8.582;2023-05-02T12:53:38;100981.19;;;21.46;42.79
24558;BME280;12726;49.148;8.582;2023-05-02T12:56:25;100979.50;;;21.25;41.92
24558;BME280;12726;49.148;8.582;2023-05-02T12:59:25;100982.97;;;21.05;42.09
24558;BME280;12726;49.148;8.582;2023-05-02T13:02:10;100969.41;;;20.74;42.44
24558;BME280;12726;49.148;8.582;2023-05-02T13:04:56;100966.00;;;20.51;43.81
24558;BME280;12726;49.148;8.582;2023-05-02T13:07:41;100962.13;;;20.42;45.08
24558;BME280;12726;49.148;8.582;2023-05-02T13:10:26;100967.19;;;20.28;44.17
24558;BME280;12726;49.148;8.582;2023-05-02T13:13:13;100969.22;;;20.06;44.36
24558;BME280;12726;49.148;8.582;2023-05-02T13:15:58;100967.75;;;20.30;43.92
24558;BME280;12726;49.148;8.582;2023-05-02T13:18:44;100969.81;;;20.45;44.51
24558;BME280;12726;49.148;8.582;2023-05-02T13:21:29;100962.69;;;20.12;42.71
24558;BME280;12726;49.148;8.582;2023-05-02T13:24:15;100966.50;;;19.74;43.38
24558;BME280;12726;49.148;8.582;2023-05-02T13:27:01;100968.72;;;19.82;45.41
24558;BME280;12726;49.148;8.582;2023-05-02T13:29:49;100968.47;;;19.84;45.04
24558;BME280;12726;49.148;8.582;2023-05-02T13:32:34;100960.00;;;19.80;44.02
24558;BME280;12726;49.148;8.582;2023-05-02T13:35:20;100957.25;;;19.80;44.02
24558;BME280;12726;49.148;8.582;2023-05-02T13:38:05;100964.59;;;19.75;43.74
24558;BME280;12726;49.148;8.582;2023-05-02T13:40:50;100959.22;;;19.58;43.28
24558;BME280;12726;49.148;8.582;2023-05-02T13:43:37;100947.63;;;19.46;43.14
24558;BME280;12726;49.148;8.582;2023-05-02T13:46:24;100954.91;;;19.40;42.83
24558;BME280;12726;49.148;8.582;2023-05-02T13:49:10;100957.09;;;19.38;45.44
24558;BME280;12726;49.148;8.582;2023-05-02T13:51:55;100959.31;;;19.20;44.37
24558;BME280;12726;49.148;8.582;2023-05-02T13:54:40;100962.34;;;19.18;44.07
24558;BME280;12726;49.148;8.582;2023-05-02T13:57:26;100966.88;;;19.12;43.32
24558;BME280;12726;49.148;8.582;2023-05-02T14:00:12;100965.06;;;19.18;44.45
24558;BME280;12726;49.148;8.582;2023-05-02T14:02:59;100961.66;;;19.33;44.59
24558;BME280;12726;49.148;8.582;2023-05-02T14:05:44;100955.31;;;19.27;45.36
24558;BME280;12726;49.148;8.582;2023-05-02T14:08:30;100951.22;;;19.25;45.88
24558;BME280;12726;49.148;8.582;2023-05-02T14:11:15;100955.72;;;19.41;45.25
24558;BME280;12726;49.148;8.582;2023-05-02T14:14:00;100952.28;;;19.24;44.42
24558;BME280;12726;49.148;8.582;2023-05-02T14:16:46;100953.16;;;19.02;44.18
24558;BME280;12726;49.148;8.582;2023-05-02T14:19:32;100952.38;;;19.07;44.01
24558;BME280;12726;49.148;8.582;2023-05-02T14:22:18;100952.69;;;19.10;44.28
24558;BME280;12726;49.148;8.582;2023-05-02T14:25:04;100954.41;;;18.95;43.58
24558;BME280;12726;49.148;8.582;2023-05-02T14:27:49;100952.25;;;18.75;43.10
24558;BME280;12726;49.148;8.582;2023-05-02T14:30:34;100951.72;;;18.56;43.48
24558;BME280;12726;49.148;8.582;2023-05-02T14:33:20;100956.94;;;18.58;44.69